KMDZ

Taylor County Airport

Medford, Wisconsin, USA

KMDZ 110915Z AUTO 16007KT 3SM -SN OVC028 M08/M10 A2986 RMK AO2 T10811097

Observed Flight Rules
Dec-11 @ 09:15 UTC (16 minutes ago) Marginal Visual Flight Rules
Wind Visibility Clouds Conditions
160° at 7 knots 3 miles
  • Overcast at 2,800' AGL
  • Light Snow
Temperatures Readings
Current -8°C / 18°F
Dewpoint -10°C / 14°F
Humidity 86%
Altimeter 29.86" Hg
Pressure 1011 hPa
Elevation 448
Observed Flight Rules
Dec-11 @ 09:15 UTC
(16 minutes ago)
MVFR
Wind Visibility
160° at 7 knots 3 miles
Clouds
  • Overcast at 2,800' AGL
Conditions
  • Light Snow
Temperature Dewpoint
-8°C / 18°F -10°C / 14°F
Humidity Altimeter Pressure
86% 29.86" Hg 1011 hPa